Airfield :
LOGIN :

Register | Disclaimer

   EN    FR    IT 

 










Legend :    VFR   Marginal VFR   IFR   Intensive IFR   Very Intensive IFR
Visi :
Ceiling :
>= 8 km
>= 3000ft
5 to 8 km
1000 to 3000 ft
1500m to 5 km
500 to 1000 ft
800 to 1500m
200 to 500 ft
< 800m
< 200 ft
Symbols :   Thunderstorms  Fog  Heavy snow  Heavy precipitations  Wind > 20 kt
SIGMETs :     Misc.  Thunderstorms  Icing  Turbulence  Mountain Waves  Volcanic Ashes







- Airport Elevation : 1416 ft
- IATA code : ZRH


LSZH - Zurich

CURRENT METAR :
  • 292350Z 00000KT CAVOK 07/04 Q1028 NOSIG

EXPIRED METARs :
  • 292320Z 00000KT CAVOK 07/04 Q1028 NOSIG
  • 292250Z 00000KT CAVOK 07/04 Q1028 NOSIG
  • 292220Z 00000KT CAVOK 08/03 Q1028 NOSIG
  • 292150Z 00000KT CAVOK 08/04 Q1028 NOSIG

TAF TAF LSZH
Valid from the 30 at 00:00 until the 31 at 06:00 UTC


292325Z 3000/3106 VRB03KT CAVOK TX21/3015Z TN04/3005Z TN04/3105Z
PROB30 3003/3006 4000 MIFG NSC
BECMG 3008/3010 05006KT
BECMG 3016/3019 VRB03KT
PROB30 3102/3106 4000 MIFG
ATIS : +41 43 816 2295 (DEP) +41 43 816 2294 (ARR)
No reported NOTAMs for that airfield.



MET'MAP, your aeronautical weather chart ! - Copyright ORBIFLY December 2007 - Disclaimer

ORBIFLY MET'MAP TEAM :

Programming & Development : Alexandra Zaïnal
Concept & Development : Baudouin d'Aumeries
Co-Development & Prog : Marc-Olivier Méhu
Technical & hardware support : Manuel Goepfert

Contact : metmap@orbifly.com




SOURCES & CREDITS :

   NOAA